Koyo Maru No.8 — JL6213 — position and weather

sailwx.info

Track history (hours):
 
Tides and Currents Weather Stations Pressure Air Temp Water Temp Dewpoint Dewpoint Depression Visibility Wind Speed Wind Dir Waves Ship Positions

Koyo Maru No.8

Last reported at 2018-Jan-20 16:30 UTC. Time now 2018-Jan-21 10:46 UTC.
Position N 33°49' E 135°03'.

Length 70 m; draft 4 m.

Type: Tanker. MMSI: 431500123.

Date/timePositionNaut miles runAvg speedWind from/ knotsBaromVisibWave heightAir tempDewpointWater temp
2018-Jan-20 16:30N 33°49' E 135°03'711.4
2018-Jan-20 15:54N 33°54' E 134°57'611.1
2018-Jan-20 15:19N 33°59' E 134°53'411.0
2018-Jan-20 14:57N 34°02' E 134°49'511.0
2018-Jan-20 14:30N 34°06' E 134°46'811.0
2018-Jan-20 13:46N 34°13' E 134°40'4 9.8
2018-Jan-20 13:24N 34°16' E 134°37'410.4
2018-Jan-20 13:00N 34°17' E 134°32'610.5
2018-Jan-20 12:28N 34°19' E 134°26'510.5
2018-Jan-20 12:00N 34°21' E 134°21'810.0
2018-Jan-20 11:10N 34°25' E 134°11'11 0.4
2018-Jan-19 08:50N 34°22' E 134°24'611.8
2018-Jan-19 08:18N 34°19' E 134°31'412.3
2018-Jan-19 08:00N 34°17' E 134°35'510.4
2018-Jan-19 07:30N 34°14' E 134°39'610.8
2018-Jan-19 06:56N 34°09' E 134°44'511.4
2018-Jan-19 06:30N 34°05' E 134°48'611.5
2018-Jan-19 06:00N 34°01' E 134°52'611.3
2018-Jan-19 05:30N 33°57' E 134°57'510.7
2018-Jan-19 05:00N 33°52' E 135°00'610.7
2018-Jan-19 04:26N 33°48' E 135°05'172 9.3
2018-Jan-18 09:50N 34°35' E 138°25'3 7.7
2018-Jan-18 09:26N 34°36' E 138°29'3 7.4
2018-Jan-18 09:00N 34°37' E 138°33'4 7.1
2018-Jan-18 08:27N 34°37' E 138°38'3 6.9
2018-Jan-18 08:00N 34°37' E 138°41'5 7.0
2018-Jan-18 07:18N 34°36' E 138°47'2 7.3
2018-Jan-18 07:00N 34°35' E 138°50'4 7.5
2018-Jan-18 06:30N 34°36' E 138°54'4 8.6
2018-Jan-18 06:00N 34°38' E 138°59'5 9.8
2018-Jan-18 05:30N 34°41' E 139°03'6 9.8
2018-Jan-18 04:56N 34°45' E 139°08'610.7
2018-Jan-18 04:21N 34°50' E 139°13'410.8
2018-Jan-18 03:57N 34°52' E 139°17'910.2
2018-Jan-18 03:04N 34°57' E 139°26'210.5
2018-Jan-18 02:54N 34°59' E 139°28'510.7
2018-Jan-18 02:27N 35°01' E 139°33'510.6
2018-Jan-18 01:59N 35°05' E 139°37'511.1
2018-Jan-18 01:30N 35°07' E 139°43'611.2
2018-Jan-18 01:00N 35°12' E 139°46'1010.5
2018-Jan-18 00:01N 35°23' E 139°44'0 2.1
2018-Jan-17 23:58N 35°23' E 139°44'  
2018-Jan-12 14:55N 35°33' E 140°00'0 0.0
2018-Jan-12 14:28N 35°33' E 140°00'0 0.1
2018-Jan-12 13:55N 35°33' E 140°00'0 0.0
2018-Jan-12 13:28N 35°33' E 140°00'0 0.1
2018-Jan-12 12:55N 35°33' E 140°00'0 0.0
2018-Jan-12 12:25N 35°33' E 140°00'0 0.0
2018-Jan-12 11:58N 35°33' E 140°00'0 0.0
2018-Jan-12 11:28N 35°33' E 140°00'0 0.0
2018-Jan-12 10:58N 35°33' E 140°00'0 0.0
2018-Jan-12 10:28N 35°33' E 140°00'2 4.5
2018-Jan-12 10:00N 35°32' E 139°58'510.4
2018-Jan-12 09:29N 35°30' E 139°52'5 9.8
2018-Jan-12 09:00N 35°31' E 139°46'1 2.0
2018-Jan-12 08:30N 35°32' E 139°45'0 0.0
2018-Jan-12 05:09N 35°32' E 139°45'0 0.5
2018-Jan-12 05:00N 35°32' E 139°46'3 5.8
2018-Jan-12 04:31N 35°30' E 139°48'1 2.3
2018-Jan-12 04:00N 35°29' E 139°49'0 0.0
2018-Jan-12 03:30N 35°29' E 139°49'0 0.0
2018-Jan-12 03:00N 35°29' E 139°49'0 0.0
2018-Jan-12 02:30N 35°29' E 139°49'0 0.0
2018-Jan-12 02:00N 35°29' E 139°49'0 0.0
2018-Jan-12 01:30N 35°29' E 139°49'0 0.0
2018-Jan-12 01:00N 35°29' E 139°49'0 0.0
2018-Jan-12 00:30N 35°29' E 139°49'0 0.0
2018-Jan-12 00:00N 35°29' E 139°49'0 0.1
2018-Jan-11 23:30N 35°29' E 139°49'0 0.1
2018-Jan-11 23:00N 35°29' E 139°49'0 0.1
2018-Jan-11 22:30N 35°29' E 139°49'0 0.0
2018-Jan-11 22:00N 35°29' E 139°49'0 0.0
2018-Jan-11 21:30N 35°29' E 139°49'0 0.0
2018-Jan-11 21:00N 35°29' E 139°49'0 0.0
2018-Jan-11 20:30N 35°29' E 139°49'0 0.0
2018-Jan-11 20:00N 35°29' E 139°49'0 0.0
2018-Jan-11 19:30N 35°29' E 139°49'0 0.0
2018-Jan-11 19:00N 35°29' E 139°49'0 0.1
2018-Jan-11 18:30N 35°29' E 139°49'0 0.0
2018-Jan-11 18:00N 35°29' E 139°49'0 0.0
2018-Jan-11 17:30N 35°29' E 139°49'0 0.0
2018-Jan-11 17:00N 35°29' E 139°49'0 0.0
2018-Jan-11 16:30N 35°29' E 139°49'0 0.0
2018-Jan-11 16:00N 35°29' E 139°49'0 0.0
2018-Jan-11 15:30N 35°29' E 139°49'0 0.0
2018-Jan-11 15:00N 35°29' E 139°49'0 0.0
2018-Jan-11 14:30N 35°29' E 139°49'0 0.0
2018-Jan-11 14:00N 35°29' E 139°49'0 0.0
2018-Jan-11 13:30N 35°29' E 139°49'0 0.0
2018-Jan-11 13:00N 35°29' E 139°49'0 0.0
2018-Jan-11 12:30N 35°29' E 139°49'0 0.0
2018-Jan-11 12:00N 35°29' E 139°49'0 0.0
2018-Jan-11 11:30N 35°29' E 139°49'0 0.0
2018-Jan-11 11:00N 35°29' E 139°49'0 0.0
2018-Jan-11 10:30N 35°29' E 139°49'0 0.0
2018-Jan-11 10:00N 35°29' E 139°49'0 0.0
2018-Jan-11 09:30N 35°29' E 139°49'0 0.0
2018-Jan-11 09:00N 35°29' E 139°49'0 0.0
2018-Jan-11 08:30N 35°29' E 139°49'0 0.0
2018-Jan-11 08:00N 35°29' E 139°49'0 0.0
2018-Jan-11 07:30N 35°29' E 139°49'0 0.0
2018-Jan-11 07:00N 35°29' E 139°49'0 0.0
2018-Jan-11 06:30N 35°29' E 139°49'0 0.0
2018-Jan-11 06:00N 35°29' E 139°49'0 0.0
2018-Jan-11 05:30N 35°29' E 139°49'0 0.0
2018-Jan-11 05:00N 35°29' E 139°49'0 0.1
2018-Jan-11 04:30N 35°29' E 139°49'0 0.0
2018-Jan-11 04:00N 35°29' E 139°49'0 0.1
2018-Jan-11 03:30N 35°29' E 139°49'0 0.0
2018-Jan-11 03:00N 35°29' E 139°49'2 3.3
2018-Jan-11 02:30N 35°28' E 139°47'510.5
2018-Jan-11 02:00N 35°27' E 139°40'1 1.6
2018-Jan-11 01:30N 35°28' E 139°40'0 0.0
2018-Jan-11 00:58N 35°28' E 139°40'0 0.0
2018-Jan-11 00:28N 35°28' E 139°40'0 0.0
2018-Jan-10 23:58N 35°28' E 139°40'0 0.1
2018-Jan-10 23:28N 35°28' E 139°40'1 3.1
2018-Jan-10 23:01N 35°27' E 139°41'1 2.7
2018-Jan-10 22:29N 35°26' E 139°43'0 0.0
2018-Jan-10 21:59N 35°26' E 139°43'0 0.0
2018-Jan-10 21:26N 35°26' E 139°43'0 0.0
2018-Jan-10 20:59N 35°26' E 139°43'0 0.1
2018-Jan-10 20:29N 35°26' E 139°43'0 0.0
2018-Jan-10 19:59N 35°26' E 139°43'0 0.0
2018-Jan-10 19:29N 35°26' E 139°43'0 0.0
2018-Jan-10 18:59N 35°26' E 139°43'0 0.1
2018-Jan-10 18:29N 35°26' E 139°43'0 0.1
2018-Jan-10 17:56N 35°26' E 139°43'0 0.1
2018-Jan-10 17:26N 35°26' E 139°43'0 0.1
2018-Jan-10 16:59N 35°26' E 139°43'  
Track history (hours):
 
Tides and Currents Weather Stations Pressure Air Temp Water Temp Dewpoint Dewpoint Depression Visibility Wind Speed Wind Dir Waves Ship Positions

Koyo Maru No.8

Last reported at 2018-Jan-20 16:30 UTC. Time now 2018-Jan-21 10:46 UTC.
Position N 33°49' E 135°03'.

Length 70 m; draft 4 m.

Type: Tanker. MMSI: 431500123.

Date/timePositionNaut miles runAvg speedWind from/ knotsBaromVisibWave heightAir tempDewpointWater temp
2018-Jan-20 16:30N 33°49' E 135°03'711.4
2018-Jan-20 15:54N 33°54' E 134°57'611.1
2018-Jan-20 15:19N 33°59' E 134°53'411.0
2018-Jan-20 14:57N 34°02' E 134°49'511.0
2018-Jan-20 14:30N 34°06' E 134°46'811.0
2018-Jan-20 13:46N 34°13' E 134°40'4 9.8
2018-Jan-20 13:24N 34°16' E 134°37'410.4
2018-Jan-20 13:00N 34°17' E 134°32'610.5
2018-Jan-20 12:28N 34°19' E 134°26'510.5
2018-Jan-20 12:00N 34°21' E 134°21'810.0
2018-Jan-20 11:10N 34°25' E 134°11'11 0.4
2018-Jan-19 08:50N 34°22' E 134°24'611.8
2018-Jan-19 08:18N 34°19' E 134°31'412.3
2018-Jan-19 08:00N 34°17' E 134°35'510.4
2018-Jan-19 07:30N 34°14' E 134°39'610.8
2018-Jan-19 06:56N 34°09' E 134°44'511.4
2018-Jan-19 06:30N 34°05' E 134°48'611.5
2018-Jan-19 06:00N 34°01' E 134°52'611.3
2018-Jan-19 05:30N 33°57' E 134°57'510.7
2018-Jan-19 05:00N 33°52' E 135°00'610.7
2018-Jan-19 04:26N 33°48' E 135°05'172 9.3
2018-Jan-18 09:50N 34°35' E 138°25'3 7.7
2018-Jan-18 09:26N 34°36' E 138°29'3 7.4
2018-Jan-18 09:00N 34°37' E 138°33'4 7.1
2018-Jan-18 08:27N 34°37' E 138°38'3 6.9
2018-Jan-18 08:00N 34°37' E 138°41'5 7.0
2018-Jan-18 07:18N 34°36' E 138°47'2 7.3
2018-Jan-18 07:00N 34°35' E 138°50'4 7.5
2018-Jan-18 06:30N 34°36' E 138°54'4 8.6
2018-Jan-18 06:00N 34°38' E 138°59'5 9.8
2018-Jan-18 05:30N 34°41' E 139°03'6 9.8
2018-Jan-18 04:56N 34°45' E 139°08'610.7
2018-Jan-18 04:21N 34°50' E 139°13'410.8
2018-Jan-18 03:57N 34°52' E 139°17'910.2
2018-Jan-18 03:04N 34°57' E 139°26'210.5
2018-Jan-18 02:54N 34°59' E 139°28'510.7
2018-Jan-18 02:27N 35°01' E 139°33'510.6
2018-Jan-18 01:59N 35°05' E 139°37'511.1
2018-Jan-18 01:30N 35°07' E 139°43'611.2
2018-Jan-18 01:00N 35°12' E 139°46'1010.5
2018-Jan-18 00:01N 35°23' E 139°44'0 2.1
2018-Jan-17 23:58N 35°23' E 139°44'  
2018-Jan-12 14:55N 35°33' E 140°00'0 0.0
2018-Jan-12 14:28N 35°33' E 140°00'0 0.1
2018-Jan-12 13:55N 35°33' E 140°00'0 0.0
2018-Jan-12 13:28N 35°33' E 140°00'0 0.1
2018-Jan-12 12:55N 35°33' E 140°00'0 0.0
2018-Jan-12 12:25N 35°33' E 140°00'0 0.0
2018-Jan-12 11:58N 35°33' E 140°00'0 0.0
2018-Jan-12 11:28N 35°33' E 140°00'0 0.0
2018-Jan-12 10:58N 35°33' E 140°00'0 0.0
2018-Jan-12 10:28N 35°33' E 140°00'2 4.5
2018-Jan-12 10:00N 35°32' E 139°58'510.4
2018-Jan-12 09:29N 35°30' E 139°52'5 9.8
2018-Jan-12 09:00N 35°31' E 139°46'1 2.0
2018-Jan-12 08:30N 35°32' E 139°45'0 0.0
2018-Jan-12 05:09N 35°32' E 139°45'0 0.5
2018-Jan-12 05:00N 35°32' E 139°46'3 5.8
2018-Jan-12 04:31N 35°30' E 139°48'1 2.3
2018-Jan-12 04:00N 35°29' E 139°49'0 0.0
2018-Jan-12 03:30N 35°29' E 139°49'0 0.0
2018-Jan-12 03:00N 35°29' E 139°49'0 0.0
2018-Jan-12 02:30N 35°29' E 139°49'0 0.0
2018-Jan-12 02:00N 35°29' E 139°49'0 0.0
2018-Jan-12 01:30N 35°29' E 139°49'0 0.0
2018-Jan-12 01:00N 35°29' E 139°49'0 0.0
2018-Jan-12 00:30N 35°29' E 139°49'0 0.0
2018-Jan-12 00:00N 35°29' E 139°49'0 0.1
2018-Jan-11 23:30N 35°29' E 139°49'0 0.1
2018-Jan-11 23:00N 35°29' E 139°49'0 0.1
2018-Jan-11 22:30N 35°29' E 139°49'0 0.0
2018-Jan-11 22:00N 35°29' E 139°49'0 0.0
2018-Jan-11 21:30N 35°29' E 139°49'0 0.0
2018-Jan-11 21:00N 35°29' E 139°49'0 0.0
2018-Jan-11 20:30N 35°29' E 139°49'0 0.0
2018-Jan-11 20:00N 35°29' E 139°49'0 0.0
2018-Jan-11 19:30N 35°29' E 139°49'0 0.0
2018-Jan-11 19:00N 35°29' E 139°49'0 0.1
2018-Jan-11 18:30N 35°29' E 139°49'0 0.0
2018-Jan-11 18:00N 35°29' E 139°49'0 0.0
2018-Jan-11 17:30N 35°29' E 139°49'0 0.0
2018-Jan-11 17:00N 35°29' E 139°49'0 0.0
2018-Jan-11 16:30N 35°29' E 139°49'0 0.0
2018-Jan-11 16:00N 35°29' E 139°49'0 0.0
2018-Jan-11 15:30N 35°29' E 139°49'0 0.0
2018-Jan-11 15:00N 35°29' E 139°49'0 0.0
2018-Jan-11 14:30N 35°29' E 139°49'0 0.0
2018-Jan-11 14:00N 35°29' E 139°49'0 0.0
2018-Jan-11 13:30N 35°29' E 139°49'0 0.0
2018-Jan-11 13:00N 35°29' E 139°49'0 0.0
2018-Jan-11 12:30N 35°29' E 139°49'0 0.0
2018-Jan-11 12:00N 35°29' E 139°49'0 0.0
2018-Jan-11 11:30N 35°29' E 139°49'0 0.0
2018-Jan-11 11:00N 35°29' E 139°49'0 0.0
2018-Jan-11 10:30N 35°29' E 139°49'0 0.0
2018-Jan-11 10:00N 35°29' E 139°49'0 0.0
2018-Jan-11 09:30N 35°29' E 139°49'0 0.0
2018-Jan-11 09:00N 35°29' E 139°49'0 0.0
2018-Jan-11 08:30N 35°29' E 139°49'0 0.0
2018-Jan-11 08:00N 35°29' E 139°49'0 0.0
2018-Jan-11 07:30N 35°29' E 139°49'0 0.0
2018-Jan-11 07:00N 35°29' E 139°49'0 0.0
2018-Jan-11 06:30N 35°29' E 139°49'0 0.0
2018-Jan-11 06:00N 35°29' E 139°49'0 0.0
2018-Jan-11 05:30N 35°29' E 139°49'0 0.0
2018-Jan-11 05:00N 35°29' E 139°49'0 0.1
2018-Jan-11 04:30N 35°29' E 139°49'0 0.0
2018-Jan-11 04:00N 35°29' E 139°49'0 0.1
2018-Jan-11 03:30N 35°29' E 139°49'0 0.0
2018-Jan-11 03:00N 35°29' E 139°49'2 3.3
2018-Jan-11 02:30N 35°28' E 139°47'510.5
2018-Jan-11 02:00N 35°27' E 139°40'1 1.6
2018-Jan-11 01:30N 35°28' E 139°40'0 0.0
2018-Jan-11 00:58N 35°28' E 139°40'0 0.0
2018-Jan-11 00:28N 35°28' E 139°40'0 0.0
2018-Jan-10 23:58N 35°28' E 139°40'0 0.1
2018-Jan-10 23:28N 35°28' E 139°40'1 3.1
2018-Jan-10 23:01N 35°27' E 139°41'1 2.7
2018-Jan-10 22:29N 35°26' E 139°43'0 0.0
2018-Jan-10 21:59N 35°26' E 139°43'0 0.0
2018-Jan-10 21:26N 35°26' E 139°43'0 0.0
2018-Jan-10 20:59N 35°26' E 139°43'0 0.1
2018-Jan-10 20:29N 35°26' E 139°43'0 0.0
2018-Jan-10 19:59N 35°26' E 139°43'0 0.0
2018-Jan-10 19:29N 35°26' E 139°43'0 0.0
2018-Jan-10 18:59N 35°26' E 139°43'0 0.1
2018-Jan-10 18:29N 35°26' E 139°43'0 0.1
2018-Jan-10 17:56N 35°26' E 139°43'0 0.1
2018-Jan-10 17:26N 35°26' E 139°43'0 0.1
2018-Jan-10 16:59N 35°26' E 139°43'  

Dump ship's entire track history